Time;durP1;ratioP1;P1;durP2;ratioP2;P2;SDS_P1;SDS_P2;PMS_P1;PMS_P2;Temp;Humidity;BMP_temperature;BMP_pressure;BME280_temperature;BME280_humidity;BME280_pressure;Samples;Min_cycle;Max_cycle;Signal;HPM_P1;HPM_P2
2023/12/12 00:00:01;;;;;;;1.50;0.57;;;;;;;12.46;100.00;101411.88;5021350;28;20491;-77
2023/12/12 00:02:33;;;;;;;2.38;0.75;;;;;;;12.40;100.00;101412.56;5026640;28;20042;-75
2023/12/12 00:05:01;;;;;;;4.37;0.77;;;;;;;12.33;100.00;101408.91;5023480;28;20120;-77
2023/12/12 00:07:30;;;;;;;1.10;0.70;;;;;;;12.30;100.00;101414.00;5028397;28;20289;-76
2023/12/12 00:10:01;;;;;;;0.90;0.60;;;;;;;12.26;100.00;101404.34;5022977;28;20409;-75
2023/12/12 00:12:33;;;;;;;1.42;0.77;;;;;;;12.24;100.00;101400.81;5025301;28;20057;-76
2023/12/12 00:15:02;;;;;;;2.05;0.60;;;;;;;12.24;100.00;101403.41;5023380;28;20082;-74
2023/12/12 00:17:43;;;;;;;2.38;0.52;;;;;;;12.25;100.00;101412.94;5021845;28;20133;-76
2023/12/12 00:20:12;;;;;;;2.30;0.90;;;;;;;12.22;100.00;101410.25;5029397;28;20049;-76
2023/12/12 00:22:41;;;;;;;1.10;0.68;;;;;;;12.18;100.00;101420.47;5025885;28;20415;-75
2023/12/12 00:25:15;;;;;;;1.38;0.70;;;;;;;12.07;100.00;101418.41;5026213;28;20053;-76
2023/12/12 00:27:43;;;;;;;2.25;0.50;;;;;;;12.04;100.00;101426.06;5023533;28;20415;-77
2023/12/12 00:30:13;;;;;;;1.02;0.70;;;;;;;12.03;100.00;101426.91;5024337;28;21098;-77
2023/12/12 00:32:44;;;;;;;0.73;0.32;;;;;;;12.02;100.00;101421.66;5024397;28;20149;-76
2023/12/12 00:35:12;;;;;;;2.40;1.08;;;;;;;12.08;100.00;101429.66;5024036;28;20072;-78
2023/12/12 00:37:41;;;;;;;1.63;1.05;;;;;;;12.11;100.00;101433.22;5025098;28;20040;-76
2023/12/12 00:40:12;;;;;;;1.85;1.00;;;;;;;12.13;100.00;101433.28;5022334;28;20489;-77
2023/12/12 00:42:41;;;;;;;2.05;0.70;;;;;;;12.13;100.00;101420.31;5023810;28;20699;-75
2023/12/12 00:45:10;;;;;;;0.75;0.68;;;;;;;12.16;100.00;101428.19;5025163;28;20049;-77
2023/12/12 00:47:41;;;;;;;1.50;1.00;;;;;;;12.17;100.00;101424.78;5024991;28;20092;-76
2023/12/12 00:50:12;;;;;;;1.90;1.02;;;;;;;12.14;100.00;101427.28;5021125;28;20964;-76
2023/12/12 00:52:42;;;;;;;1.23;0.80;;;;;;;12.14;100.00;101430.75;5023222;28;20053;-76
2023/12/12 00:55:11;;;;;;;2.33;1.00;;;;;;;12.16;100.00;101428.19;5025111;28;20053;-75
2023/12/12 00:57:41;;;;;;;3.97;1.33;;;;;;;12.16;100.00;101430.78;5024541;28;20045;-76
2023/12/12 01:00:10;;;;;;;3.78;1.20;;;;;;;12.15;100.00;101434.22;5023861;28;20506;-76
2023/12/12 01:02:39;;;;;;;1.05;0.73;;;;;;;12.14;100.00;101427.28;5022945;28;20067;-77
2023/12/12 01:05:09;;;;;;;1.52;0.85;;;;;;;12.09;100.00;101424.50;5023553;28;20065;-77
2023/12/12 01:07:41;;;;;;;1.45;0.85;;;;;;;12.10;100.00;101425.41;5025761;28;20136;-78
2023/12/12 01:10:11;;;;;;;1.25;0.93;;;;;;;12.09;100.00;101423.63;5022400;28;20045;-78
2023/12/12 01:12:39;;;;;;;1.52;0.68;;;;;;;12.07;100.00;101425.28;5025636;28;20513;-76
2023/12/12 01:15:09;;;;;;;1.70;0.98;;;;;;;12.03;100.00;101418.28;5021800;28;20052;-77
2023/12/12 01:17:38;;;;;;;1.00;0.80;;;;;;;11.94;100.00;101413.63;5029024;28;20056;-76
2023/12/12 01:20:11;;;;;;;1.73;0.80;;;;;;;11.85;100.00;101414.16;5023681;28;20144;-75
2023/12/12 01:22:40;;;;;;;;;;;;;;;11.82;100.00;101419.25;5027305;28;20077;-76
2023/12/12 01:25:10;;;;;;;1.75;0.95;;;;;;;11.80;100.00;101415.72;5026918;28;19921;-77
2023/12/12 01:27:44;;;;;;;0.75;0.65;;;;;;;11.79;100.00;101423.44;5024979;28;20070;-78
2023/12/12 01:30:14;;;;;;;0.80;0.63;;;;;;;11.81;100.00;101424.38;5026709;28;20117;-76
2023/12/12 01:32:46;;;;;;;0.75;0.60;;;;;;;11.76;100.00;101413.84;5028991;28;20065;-79
2023/12/12 01:35:18;;;;;;;1.65;0.68;;;;;;;11.76;100.00;101416.44;5028242;28;20068;-75
2023/12/12 01:37:51;;;;;;;1.17;0.80;;;;;;;11.73;100.00;101408.56;5026744;28;20060;-75
2023/12/12 01:40:25;;;;;;;1.92;0.65;;;;;;;11.74;100.00;101407.72;5024747;28;20056;-75
2023/12/12 01:43:10;;;;;;;0.55;0.47;;;;;;;11.74;100.00;101408.59;5026806;28;20606;-76
2023/12/12 01:48:33;;;;;;;1.17;0.80;;;;;;;11.73;100.00;101408.56;5028452;28;20049;-76
2023/12/12 01:51:08;;;;;;;0.93;0.60;;;;;;;11.74;100.00;101406.00;5027641;28;20055;-76
2023/12/12 01:53:47;;;;;;;2.88;0.90;;;;;;;11.74;100.00;101406.00;5026048;28;20049;-76
2023/12/12 01:56:18;;;;;;;0.90;0.75;;;;;;;11.72;100.00;101401.59;5025756;28;20049;-76
2023/12/12 01:58:53;;;;;;;1.20;0.77;;;;;;;11.70;100.00;101405.84;5026638;28;20100;-76
2023/12/12 02:01:28;;;;;;;0.98;0.60;;;;;;;11.69;100.00;101398.91;5031104;28;20064;-76
2023/12/12 02:04:20;;;;;;;2.55;0.70;;;;;;;11.66;100.00;101401.38;5026664;28;20057;-77
2023/12/12 02:06:56;;;;;;;2.13;0.80;;;;;;;11.63;100.00;101398.69;5023942;28;20814;-77
2023/12/12 02:09:55;;;;;;;;;;;;;;;;;;;;;
2023/12/12 02:15:20;;;;;;;;;;;;;;;11.53;100.00;101411.31;5031504;28;20056;-75
2023/12/12 02:18:23;;;;;;;1.25;0.80;;;;;;;11.51;100.00;101407.78;5025933;28;19972;-75
2023/12/12 02:21:06;;;;;;;3.05;0.95;;;;;;;11.49;100.00;101408.56;5023544;28;20411;-75
2023/12/12 02:23:37;;;;;;;;;;;;;;;11.44;100.00;101408.38;5032896;28;20049;-76
2023/12/12 02:26:06;;;;;;;1.63;1.10;;;;;;;11.35;100.00;101399.41;5028588;28;19936;-77
2023/12/12 02:32:09;;;;;;;1.65;1.20;;;;;;;11.33;100.00;101407.09;4982334;28;20496;-74
2023/12/12 02:34:59;;;;;;;4.75;1.75;;;;;;;11.21;100.00;101409.25;5012600;28;20064;-76
2023/12/12 02:37:30;;;;;;;2.08;1.20;;;;;;;11.20;100.00;101410.97;5030189;28;20053;-74
2023/12/12 02:40:15;;;;;;;2.13;1.58;;;;;;;11.20;100.00;101404.88;5031047;28;20045;-73
2023/12/12 02:43:02;;;;;;;3.15;1.30;;;;;;;11.15;100.00;101406.44;5031465;28;20080;-77
2023/12/12 02:55:41;;;;;;;4.22;1.70;;;;;;;10.97;100.00;101414.38;4998783;28;20689;-76
2023/12/12 02:58:10;;;;;;;2.67;1.38;;;;;;;10.91;100.00;101412.44;5024449;28;20120;-77
2023/12/12 03:00:38;;;;;;;2.55;1.38;;;;;;;10.87;100.00;101418.31;5024842;28;20450;-77
2023/12/12 03:03:07;;;;;;;1.67;1.10;;;;;;;10.84;100.00;101413.03;5019914;28;20810;-75
2023/12/12 03:05:35;;;;;;;2.60;1.58;;;;;;;10.80;100.00;101419.78;5023750;28;20205;-76
2023/12/12 03:08:04;;;;;;;3.45;1.73;;;;;;;10.79;100.00;101428.38;5026817;28;20127;-76
2023/12/12 03:10:34;;;;;;;1.85;1.15;;;;;;;10.77;100.00;101436.94;5029954;28;20056;-76
2023/12/12 03:13:04;;;;;;;2.05;1.70;;;;;;;10.71;100.00;101434.09;5027440;28;20145;-75
2023/12/12 03:15:35;;;;;;;3.15;1.17;;;;;;;10.62;100.00;101438.06;5027432;28;20049;-79
2023/12/12 03:18:04;;;;;;;3.38;1.33;;;;;;;10.55;100.00;101436.03;5027243;28;20046;-77
2023/12/12 03:20:36;;;;;;;2.50;1.40;;;;;;;10.55;100.00;101435.16;5024898;28;20049;-76
2023/12/12 03:23:04;;;;;;;1.95;1.27;;;;;;;10.50;100.00;101437.56;5026917;28;20377;-75
2023/12/12 03:25:33;;;;;;;2.10;1.30;;;;;;;10.49;100.00;101435.81;5026014;28;20042;-78
2023/12/12 03:28:04;;;;;;;2.45;1.25;;;;;;;10.49;100.00;101441.00;5027564;28;20137;-77
2023/12/12 03:30:33;;;;;;;2.55;1.40;;;;;;;10.48;100.00;101436.63;5027440;28;20100;-74
2023/12/12 03:33:02;;;;;;;1.75;0.95;;;;;;;10.45;100.00;101432.22;5027478;28;20046;-77
2023/12/12 03:35:31;;;;;;;1.92;1.00;;;;;;;10.41;100.00;101434.63;5027946;28;20109;-77
2023/12/12 03:38:00;;;;;;;2.47;1.25;;;;;;;10.36;100.00;101426.66;5027647;28;20045;-79
2023/12/12 03:40:32;;;;;;;2.25;1.30;;;;;;;10.37;100.00;101441.34;5029170;28;20564;-75
2023/12/12 03:43:01;;;;;;;2.20;1.33;;;;;;;10.33;100.00;101431.72;5027161;28;20048;-76
2023/12/12 03:45:34;;;;;;;1.13;0.93;;;;;;;10.25;100.00;101423.59;5028905;28;20625;-75
2023/12/12 03:48:03;;;;;;;2.83;1.05;;;;;;;10.24;100.00;101432.19;5031479;28;20076;-77
2023/12/12 03:50:35;;;;;;;2.38;1.20;;;;;;;10.20;100.00;101435.44;5026384;28;20049;-78
2023/12/12 03:53:03;;;;;;;1.63;1.13;;;;;;;10.16;100.00;101441.31;5030247;28;20899;-77
2023/12/12 03:55:36;;;;;;;2.33;1.30;;;;;;;10.09;100.00;101441.88;5032250;28;20049;-77
2023/12/12 03:58:05;;;;;;;1.83;1.17;;;;;;;9.98;100.00;101438.81;5031718;28;20604;-74
2023/12/12 04:00:36;;;;;;;1.35;0.93;;;;;;;9.95;100.00;101430.06;5030420;28;20054;-77
2023/12/12 04:03:05;;;;;;;2.13;1.30;;;;;;;9.96;100.00;101431.81;5030359;28;20045;-75
2023/12/12 04:05:36;;;;;;;1.38;1.13;;;;;;;9.93;100.00;101430.00;5029011;28;20389;-75
2023/12/12 04:08:06;;;;;;;1.55;0.80;;;;;;;9.92;100.00;101425.66;5027787;28;20446;-76
2023/12/12 04:10:34;;;;;;;1.30;0.90;;;;;;;9.82;100.00;101416.59;5022616;28;20057;-76
2023/12/12 04:13:03;;;;;;;1.50;0.73;;;;;;;9.88;100.00;101425.47;5026878;28;20083;-71
2023/12/12 04:15:35;;;;;;;1.73;0.80;;;;;;;9.85;100.00;101418.47;5026365;28;20542;-76
2023/12/12 04:18:03;;;;;;;1.70;0.70;;;;;;;9.82;100.00;101426.94;5024442;28;20073;-76
2023/12/12 04:20:33;;;;;;;1.75;1.10;;;;;;;9.80;100.00;101420.84;5023792;28;20052;-78
2023/12/12 04:23:02;;;;;;;1.40;0.80;;;;;;;9.74;100.00;101418.00;5026771;28;20073;-77
2023/12/12 04:25:34;;;;;;;1.15;0.70;;;;;;;9.75;100.00;101430.06;5026126;28;20049;-78
2023/12/12 04:28:03;;;;;;;2.58;0.95;;;;;;;9.73;100.00;101430.84;5022004;28;20149;-77
2023/12/12 04:30:34;;;;;;;1.67;0.93;;;;;;;9.72;100.00;101429.09;5025398;28;20130;-76
2023/12/12 04:33:03;;;;;;;2.70;1.10;;;;;;;9.70;100.00;101431.59;5025303;28;20065;-79
2023/12/12 04:35:34;;;;;;;1.38;0.70;;;;;;;9.66;100.00;101429.69;5027240;28;20055;-75
2023/12/12 04:38:03;;;;;;;1.33;0.70;;;;;;;9.63;100.00;101434.72;5021851;28;20054;-74
2023/12/12 04:40:35;;;;;;;1.92;1.05;;;;;;;9.60;100.00;101438.06;5027785;28;20051;-79
2023/12/12 04:43:03;;;;;;;2.13;0.93;;;;;;;9.59;100.00;101440.56;5011004;28;20059;-77
2023/12/12 04:45:35;;;;;;;1.48;0.80;;;;;;;9.55;100.00;101442.16;5028295;28;20045;-77
2023/12/12 04:48:04;;;;;;;2.08;0.82;;;;;;;9.52;100.00;101441.97;5027324;28;20046;-77
2023/12/12 04:50:33;;;;;;;1.55;0.70;;;;;;;9.49;100.00;101431.53;5025070;28;20144;-75
2023/12/12 04:53:02;;;;;;;1.40;0.82;;;;;;;9.45;100.00;101434.78;5026509;28;20052;-75
2023/12/12 04:55:35;;;;;;;0.73;0.60;;;;;;;9.41;100.00;101441.53;5026332;28;20120;-75
2023/12/12 04:58:04;;;;;;;1.27;0.60;;;;;;;9.37;100.00;101441.31;5023712;28;20050;-77
2023/12/12 05:00:35;;;;;;;1.15;0.70;;;;;;;9.36;100.00;101449.88;5023857;28;20041;-76
2023/12/12 05:03:03;;;;;;;0.30;0.30;;;;;;;9.33;100.00;101460.94;5025414;28;20063;-77
2023/12/12 05:05:33;;;;;;;0.73;0.50;;;;;;;9.27;100.00;101455.50;5026191;28;20052;-75
2023/12/12 05:08:02;;;;;;;0.52;0.38;;;;;;;9.24;100.00;101470.84;5027746;28;20080;-75
2023/12/12 05:10:31;;;;;;;0.50;0.40;;;;;;;9.19;100.00;101464.59;5022947;28;20396;-77
2023/12/12 05:12:59;;;;;;;0.77;0.55;;;;;;;9.17;100.00;101461.06;5022254;28;20054;-77
2023/12/12 05:15:29;;;;;;;2.40;0.45;;;;;;;9.14;100.00;101460.91;5025654;28;20568;-76
2023/12/12 05:17:59;;;;;;;0.68;0.45;;;;;;;9.11;100.00;101458.19;5023357;28;20056;-76
2023/12/12 05:20:28;;;;;;;0.52;0.40;;;;;;;9.05;100.00;101455.31;5023915;28;20045;-73
2023/12/12 05:22:57;;;;;;;1.13;0.40;;;;;;;9.06;100.00;101468.28;5019313;28;20394;-75
2023/12/12 05:25:26;;;;;;;0.40;0.35;;;;;;;9.05;100.00;101463.94;5022754;28;20049;-74
2023/12/12 05:27:55;;;;;;;2.08;0.35;;;;;;;9.02;100.00;101475.03;5024741;28;20038;-76
2023/12/12 05:30:24;;;;;;;0.30;0.30;;;;;;;9.02;100.00;101477.59;5022965;28;20056;-74
2023/12/12 05:32:53;;;;;;;1.05;0.30;;;;;;;9.02;100.00;101481.84;5024901;28;20560;-77
2023/12/12 05:35:23;;;;;;;1.05;0.40;;;;;;;9.00;100.00;101481.81;5024289;28;20049;-76
2023/12/12 05:37:52;;;;;;;2.20;0.70;;;;;;;8.98;100.00;101486.00;5027250;28;20057;-78
2023/12/12 05:40:21;;;;;;;0.65;0.40;;;;;;;8.91;100.00;101481.38;5025656;28;20124;-74
2023/12/12 05:42:49;;;;;;;0.63;0.38;;;;;;;8.95;100.00;101487.53;5026765;28;20132;-78
2023/12/12 05:45:18;;;;;;;0.70;0.55;;;;;;;8.95;100.00;101493.59;5025639;28;20054;-76
2023/12/12 05:47:47;;;;;;;0.30;0.30;;;;;;;8.94;100.00;101491.84;5027772;28;20045;-76
2023/12/12 05:50:16;;;;;;;1.17;0.40;;;;;;;8.91;100.00;101480.47;5028130;28;20053;-76
2023/12/12 05:52:47;;;;;;;1.95;0.43;;;;;;;8.91;100.00;101481.38;5028667;28;20041;-77
2023/12/12 05:55:15;;;;;;;0.63;0.40;;;;;;;8.88;100.00;101472.59;5024995;28;20514;-74
2023/12/12 05:57:44;;;;;;;1.45;0.40;;;;;;;8.83;100.00;101471.50;5028002;28;20068;-76
2023/12/12 06:00:13;;;;;;;0.52;0.50;;;;;;;8.82;100.00;101473.19;5024804;28;20088;-76
2023/12/12 06:02:42;;;;;;;2.30;0.70;;;;;;;8.79;100.00;101480.75;5030242;28;20046;-76
2023/12/12 06:05:12;;;;;;;1.35;0.35;;;;;;;8.73;100.00;101489.09;5029344;28;20049;-77
2023/12/12 06:07:46;;;;;;;1.38;0.50;;;;;;;8.68;100.00;101481.94;5029888;28;20060;-77
2023/12/12 06:10:18;;;;;;;1.00;0.77;;;;;;;8.67;100.00;101493.97;5028363;28;20053;-77
2023/12/12 06:12:46;;;;;;;4.25;0.30;;;;;;;8.68;100.00;101500.00;5023443;28;20048;-78
2023/12/12 06:15:20;;;;;;;0.70;0.50;;;;;;;8.58;100.00;101493.50;5026415;28;20052;-76
2023/12/12 06:17:49;;;;;;;0.77;0.40;;;;;;;8.55;100.00;101507.13;5028096;28;20434;-76
2023/12/12 06:20:18;;;;;;;0.73;0.40;;;;;;;8.53;100.00;101502.72;5026258;28;20128;-75
2023/12/12 06:22:47;;;;;;;0.30;0.28;;;;;;;8.52;100.00;101496.69;5021879;28;20538;-75
2023/12/12 06:25:17;;;;;;;1.73;0.55;;;;;;;8.51;100.00;101505.22;5027030;28;20085;-75
2023/12/12 06:27:46;;;;;;;0.68;0.40;;;;;;;8.50;100.00;101497.41;5025340;28;20107;-75
2023/12/12 06:30:15;;;;;;;3.85;0.40;;;;;;;8.50;100.00;101500.88;5026097;28;20053;-76
2023/12/12 06:32:51;;;;;;;0.52;0.38;;;;;;;8.51;100.00;101502.63;5025870;28;20054;-76
2023/12/12 06:35:23;;;;;;;0.45;0.40;;;;;;;8.49;100.00;101499.09;5012270;28;20514;-75
2023/12/12 06:37:51;;;;;;;0.70;0.40;;;;;;;8.48;100.00;101494.75;5017044;28;20046;-76
2023/12/12 06:40:22;;;;;;;0.70;0.32;;;;;;;8.48;100.00;101505.06;5010263;28;20064;-75
2023/12/12 06:42:53;;;;;;;0.77;0.40;;;;;;;8.45;100.00;101510.06;5005049;28;20385;-73
2023/12/12 06:45:29;;;;;;;0.50;0.35;;;;;;;8.42;100.00;101512.50;5008045;28;20146;-75
2023/12/12 06:47:59;;;;;;;0.85;0.50;;;;;;;8.35;100.00;101507.81;5006626;28;20053;-75
2023/12/12 06:50:28;;;;;;;1.45;0.40;;;;;;;8.37;100.00;101508.75;5005790;28;20867;-75
2023/12/12 06:52:56;;;;;;;1.02;0.50;;;;;;;8.36;100.00;101506.97;5003922;28;20500;-75
2023/12/12 06:55:27;;;;;;;0.30;0.20;;;;;;;8.34;100.00;101506.03;5007745;28;20160;-75
2023/12/12 06:57:57;;;;;;;1.02;0.60;;;;;;;8.33;100.00;101514.56;5005120;28;20058;-75
2023/12/12 07:00:26;;;;;;;0.43;0.30;;;;;;;8.32;100.00;101512.81;5009081;28;20046;-76
2023/12/12 07:02:57;;;;;;;0.68;0.40;;;;;;;8.33;100.00;101512.00;5009441;28;20046;-76
2023/12/12 07:05:28;;;;;;;0.70;0.40;;;;;;;8.33;100.00;101512.00;5012943;28;20053;-75
2023/12/12 07:07:57;;;;;;;0.63;0.40;;;;;;;8.29;100.00;101513.53;5003038;28;20054;-77
2023/12/12 07:10:28;;;;;;;0.50;0.30;;;;;;;8.29;100.00;101510.97;5001602;28;20050;-75
2023/12/12 07:12:57;;;;;;;0.75;0.50;;;;;;;8.28;100.00;101513.47;5006887;28;20281;-77
2023/12/12 07:15:26;;;;;;;0.50;0.40;;;;;;;8.24;100.00;101502.09;5007775;28;20725;-75
2023/12/12 07:17:54;;;;;;;0.38;0.30;;;;;;;8.22;100.00;101498.53;5006624;28;20061;-74
2023/12/12 07:20:23;;;;;;;0.70;0.30;;;;;;;8.24;100.00;101499.50;5004430;28;20056;-76
2023/12/12 07:22:51;;;;;;;0.17;0.17;;;;;;;8.24;100.00;101499.50;5006643;28;20056;-77
2023/12/12 07:25:20;;;;;;;5.13;0.50;;;;;;;8.23;100.00;101496.88;5008380;28;20060;-76
2023/12/12 07:27:54;;;;;;;0.10;0.10;;;;;;;8.21;100.00;101498.50;5008065;28;20087;-76
2023/12/12 07:30:23;;;;;;;4.40;0.70;;;;;;;8.19;100.00;101500.97;5001960;28;20038;-75
2023/12/12 07:32:51;;;;;;;0.40;0.40;;;;;;;8.18;100.00;101500.09;5007962;28;20054;-75
2023/12/12 07:35:20;;;;;;;0.70;0.38;;;;;;;8.17;100.00;101503.47;5014176;28;20060;-75
2023/12/12 07:37:49;;;;;;;0.50;0.32;;;;;;;8.04;100.00;101488.22;5025034;28;20069;-75
2023/12/12 07:40:18;;;;;;;0.30;0.20;;;;;;;8.10;100.00;101497.94;5024931;28;20407;-76
2023/12/12 07:42:58;;;;;;;0.60;0.22;;;;;;;8.07;100.00;101500.38;5025878;28;20526;-76
2023/12/12 07:45:27;;;;;;;0.35;0.30;;;;;;;8.05;100.00;101495.13;5023495;28;20072;-74
2023/12/12 07:47:55;;;;;;;1.23;0.40;;;;;;;8.03;100.00;101493.28;5017548;28;20524;-75
2023/12/12 07:50:24;;;;;;;1.20;0.40;;;;;;;8.02;100.00;101482.09;5027077;28;20057;-75
2023/12/12 07:52:53;;;;;;;0.35;0.22;;;;;;;8.02;100.00;101481.19;5025620;28;20050;-75
2023/12/12 07:55:22;;;;;;;0.43;0.35;;;;;;;7.97;100.00;101473.22;5026413;28;20053;-73
2023/12/12 07:57:51;;;;;;;0.38;0.28;;;;;;;7.96;100.00;101476.59;5023260;28;20053;-75
2023/12/12 08:00:29;;;;;;;0.73;0.35;;;;;;;7.94;100.00;101478.22;5029791;28;20049;-74
2023/12/12 08:03:05;;;;;;;1.00;0.40;;;;;;;7.93;100.00;101486.75;5026192;28;20514;-76
2023/12/12 08:05:42;;;;;;;0.10;0.10;;;;;;;7.88;100.00;101483.94;5026788;28;20100;-74
2023/12/12 08:08:19;;;;;;;0.30;0.20;;;;;;;7.86;100.00;101488.13;5024022;28;20060;-76
2023/12/12 08:10:54;;;;;;;0.40;0.30;;;;;;;7.79;100.00;101483.47;5020924;28;20048;-76
2023/12/12 08:13:27;;;;;;;0.28;0.20;;;;;;;7.86;100.00;101495.88;5023560;28;20164;-76
2023/12/12 08:16:03;;;;;;;0.30;0.30;;;;;;;7.83;100.00;101503.41;5031212;28;20076;-75
2023/12/12 08:18:48;;;;;;;0.80;0.60;;;;;;;7.83;100.00;101510.25;5023500;28;20049;-77
2023/12/12 08:21:18;;;;;;;1.50;0.50;;;;;;;7.79;100.00;101514.38;5021466;28;20050;-76
2023/12/12 08:24:00;;;;;;;0.32;0.20;;;;;;;7.76;100.00;101514.22;5021621;28;20514;-75
2023/12/12 08:26:55;;;;;;;0.20;0.20;;;;;;;7.79;100.00;101518.63;5025470;28;20053;-75
2023/12/12 08:29:31;;;;;;;0.20;0.20;;;;;;;7.75;100.00;101512.44;5023062;28;20048;-75
2023/12/12 08:32:05;;;;;;;0.30;0.10;;;;;;;7.75;100.00;101513.31;5024042;28;20045;-75
2023/12/12 08:34:37;;;;;;;0.70;0.35;;;;;;;7.75;100.00;101508.19;5024834;28;20159;-76
2023/12/12 08:37:38;;;;;;;0.45;0.32;;;;;;;7.74;100.00;101510.66;5022254;28;20057;-75
2023/12/12 08:40:11;;;;;;;0.32;0.20;;;;;;;7.73;100.00;101509.78;5022278;28;20164;-75
2023/12/12 08:42:48;;;;;;;0.43;0.20;;;;;;;7.71;100.00;101503.66;5022936;28;20073;-75
2023/12/12 08:45:35;;;;;;;0.30;0.30;;;;;;;7.73;100.00;101503.75;5020439;28;20053;-75
2023/12/12 08:48:09;;;;;;;0.43;0.30;;;;;;;7.67;100.00;101512.06;5023432;28;20097;-73
2023/12/12 08:50:39;;;;;;;0.47;0.40;;;;;;;7.65;100.00;101508.50;5024586;28;20046;-74
2023/12/12 08:53:26;;;;;;;6.97;0.50;;;;;;;7.64;100.00;101518.72;5024183;28;20054;-75
2023/12/12 08:55:56;;;;;;;0.22;0.20;;;;;;;7.60;100.00;101511.63;5024148;28;20484;-75
2023/12/12 08:58:25;;;;;;;0.47;0.43;;;;;;;7.63;100.00;101522.06;5022392;28;20053;-75
2023/12/12 09:00:55;;;;;;;0.15;0.10;;;;;;;7.64;100.00;101524.75;5026545;28;20052;-75
2023/12/12 09:03:26;;;;;;;0.20;0.20;;;;;;;7.58;100.00;101519.25;5025252;28;20045;-74
2023/12/12 09:05:58;;;;;;;0.30;0.20;;;;;;;7.52;100.00;101513.78;5022710;28;20080;-75
2023/12/12 09:08:26;;;;;;;0.40;0.30;;;;;;;7.53;100.00;101515.56;5022856;28;20057;-75
2023/12/12 09:10:55;;;;;;;0.47;0.25;;;;;;;7.53;100.00;101526.72;5023385;28;20050;-74
2023/12/12 09:13:23;;;;;;;0.63;0.40;;;;;;;7.53;100.00;101524.16;5020298;28;20446;-75
2023/12/12 09:15:52;;;;;;;0.45;0.20;;;;;;;7.54;100.00;101532.78;5019082;28;20057;-74
2023/12/12 09:18:21;;;;;;;0.30;0.17;;;;;;;7.54;100.00;101532.78;5023430;28;20046;-76
2023/12/12 09:20:51;;;;;;;0.20;0.20;;;;;;;7.54;100.00;101527.66;5024573;28;20045;-74
2023/12/12 09:23:20;;;;;;;1.05;0.30;;;;;;;7.53;100.00;101515.56;5022513;28;20103;-75
2023/12/12 09:25:49;;;;;;;0.25;0.20;;;;;;;7.56;100.00;101520.91;5022800;28;20824;-75
2023/12/12 09:28:17;;;;;;;0.40;0.30;;;;;;;7.53;100.00;101512.97;5026371;28;20487;-78
2023/12/12 09:30:46;;;;;;;1.60;0.38;;;;;;;7.51;100.00;101517.16;5026234;28;20053;-75
2023/12/12 09:33:15;;;;;;;0.95;0.40;;;;;;;7.49;100.00;101521.34;5020189;28;20076;-74
2023/12/12 09:35:44;;;;;;;1.95;0.38;;;;;;;7.51;100.00;101528.38;5025059;28;20057;-76
2023/12/12 09:38:14;;;;;;;0.38;0.30;;;;;;;7.52;100.00;101524.09;5023782;28;20061;-75
2023/12/12 09:40:43;;;;;;;0.25;0.25;;;;;;;7.49;100.00;101529.06;5024168;28;20459;-75
2023/12/12 09:43:13;;;;;;;0.82;0.40;;;;;;;7.50;100.00;101542.03;5019685;28;20045;-75
2023/12/12 09:45:47;;;;;;;0.68;0.40;;;;;;;7.38;100.00;101530.19;5024676;28;20483;-74
2023/12/12 09:48:17;;;;;;;0.60;0.40;;;;;;;7.44;100.00;101541.69;5024664;28;20057;-75
2023/12/12 09:50:48;;;;;;;1.25;0.50;;;;;;;7.42;100.00;101547.56;5024037;28;20503;-76
2023/12/12 09:53:19;;;;;;;0.40;0.40;;;;;;;7.42;100.00;101544.97;5022775;28;20046;-75
2023/12/12 09:55:48;;;;;;;1.38;0.57;;;;;;;7.41;100.00;101553.53;5023140;28;20050;-75
2023/12/12 09:58:17;;;;;;;1.02;0.50;;;;;;;7.39;100.00;101558.56;5028058;28;20316;-75
2023/12/12 10:00:49;;;;;;;1.13;0.40;;;;;;;7.32;100.00;101549.63;5025076;28;20102;-75
2023/12/12 10:03:18;;;;;;;1.75;0.70;;;;;;;7.37;100.00;101555.03;5022991;28;20045;-76
2023/12/12 10:05:52;;;;;;;0.32;0.28;;;;;;;7.33;100.00;101555.69;5018068;28;20081;-75
2023/12/12 10:08:25;;;;;;;1.17;0.40;;;;;;;7.33;100.00;101554.00;5022768;28;20411;-75
2023/12/12 10:10:57;;;;;;;0.60;0.43;;;;;;;7.32;100.00;101562.50;5021131;28;20041;-76
2023/12/12 10:13:25;;;;;;;1.10;0.50;;;;;;;7.28;100.00;101568.31;5022794;28;20053;-74
2023/12/12 10:15:54;;;;;;;1.00;0.43;;;;;;;7.27;100.00;101569.09;5022775;28;20496;-74
2023/12/12 10:18:24;;;;;;;0.93;0.40;;;;;;;7.22;100.00;101562.81;5023214;28;20499;-74
2023/12/12 10:20:56;;;;;;;1.23;0.50;;;;;;;7.23;100.00;101567.13;5025981;28;20128;-75
2023/12/12 10:23:28;;;;;;;2.05;0.70;;;;;;;7.24;100.00;101579.22;5026688;28;20081;-74
2023/12/12 10:25:59;;;;;;;1.75;0.90;;;;;;;7.26;100.00;101577.63;5026742;28;20064;-75
2023/12/12 10:28:28;;;;;;;1.90;0.70;;;;;;;7.26;100.00;101569.91;5024560;28;20252;-76
2023/12/12 10:31:00;;;;;;;1.58;0.30;;;;;;;7.23;100.00;101559.41;5025767;28;20133;-75
2023/12/12 10:33:30;;;;;;;0.85;0.40;;;;;;;7.26;100.00;101561.28;5025282;28;20646;-74
2023/12/12 10:36:03;;;;;;;4.53;0.50;;;;;;;7.28;100.00;101560.56;5028086;28;20061;-76
2023/12/12 10:38:39;;;;;;;;;;;;;;;7.29;100.00;101556.31;5022982;28;20049;-76
2023/12/12 10:41:15;;;;;;;0.93;0.57;;;;;;;7.24;100.00;101548.34;5023404;28;19932;-74
2023/12/12 10:43:45;;;;;;;0.80;0.50;;;;;;;7.29;100.00;101556.31;5026841;28;20051;-76
2023/12/12 10:46:18;;;;;;;0.77;0.50;;;;;;;7.29;100.00;101546.00;5024267;28;20145;-76
2023/12/12 10:48:47;;;;;;;0.90;0.38;;;;;;;7.29;100.00;101551.16;5023453;28;20046;-75
2023/12/12 10:51:17;;;;;;;0.45;0.35;;;;;;;7.29;100.00;101554.63;5025607;28;20682;-76
2023/12/12 10:53:51;;;;;;;1.85;0.38;;;;;;;7.28;100.00;101546.78;5025474;28;20041;-76
2023/12/12 10:56:20;;;;;;;0.73;0.40;;;;;;;7.27;100.00;101545.03;5029753;28;20050;-75
2023/12/12 10:58:50;;;;;;;0.75;0.43;;;;;;;7.25;100.00;101547.53;5033251;28;20045;-75
2023/12/12 11:01:19;;;;;;;0.82;0.50;;;;;;;7.22;100.00;101549.94;5029485;28;20096;-73
2023/12/12 11:03:50;;;;;;;0.93;0.47;;;;;;;7.23;100.00;101538.81;5026423;28;20076;-73
2023/12/12 11:06:24;;;;;;;1.15;0.40;;;;;;;7.23;100.00;101530.22;5025665;28;20448;-75
2023/12/12 11:08:54;;;;;;;0.35;0.30;;;;;;;7.23;100.00;101533.66;5023324;28;20056;-74
2023/12/12 11:11:24;;;;;;;0.65;0.20;;;;;;;7.25;100.00;101519.19;5025994;28;20080;-74
2023/12/12 11:13:54;;;;;;;0.90;0.50;;;;;;;7.24;100.00;101535.47;5020238;28;20773;-76
2023/12/12 11:16:25;;;;;;;1.50;0.40;;;;;;;7.22;100.00;101529.34;5025029;28;20653;-75
2023/12/12 11:18:57;;;;;;;2.72;0.60;;;;;;;7.21;100.00;101537.84;5026183;28;20041;-75
2023/12/12 11:21:45;;;;;;;0.57;0.43;;;;;;;7.19;100.00;101536.88;5023728;28;20427;-75
2023/12/12 11:24:16;;;;;;;1.23;0.57;;;;;;;7.14;100.00;101534.03;5023789;28;20045;-75
2023/12/12 11:26:46;;;;;;;0.45;0.25;;;;;;;7.18;100.00;101540.25;5026552;28;20132;-75
2023/12/12 11:29:16;;;;;;;0.60;0.40;;;;;;;7.17;100.00;101533.34;5026083;28;20507;-75
2023/12/12 11:32:03;;;;;;;0.45;0.40;;;;;;;7.14;100.00;101541.75;5022892;28;20053;-75
2023/12/12 11:34:38;;;;;;;1.35;0.52;;;;;;;7.11;100.00;101540.72;5021142;28;20567;-75
2023/12/12 11:37:08;;;;;;;1.30;0.55;;;;;;;7.07;100.00;101549.94;5024322;28;20663;-76
2023/12/12 11:39:49;;;;;;;0.80;0.35;;;;;;;7.07;100.00;101543.91;5025291;28;20046;-75
2023/12/12 11:42:22;;;;;;;0.30;0.20;;;;;;;7.08;100.00;101556.88;5020667;28;20067;-75
2023/12/12 11:44:52;;;;;;;0.65;0.50;;;;;;;7.06;100.00;101552.44;5023235;28;20053;-75
2023/12/12 11:47:23;;;;;;;1.17;0.50;;;;;;;7.06;100.00;101561.06;5017720;28;20137;-75
2023/12/12 11:49:52;;;;;;;1.08;0.40;;;;;;;7.07;100.00;101549.94;5024782;28;20037;-74
2023/12/12 11:52:53;;;;;;;0.40;0.40;;;;;;;7.02;100.00;101550.50;5025571;28;20052;-75
2023/12/12 11:55:29;;;;;;;1.17;0.20;;;;;;;7.04;100.00;101548.91;5022723;28;20049;-75
2023/12/12 11:58:02;;;;;;;0.25;0.20;;;;;;;7.02;100.00;101545.34;5028937;28;20057;-75
2023/12/12 12:00:36;;;;;;;3.60;0.47;;;;;;;6.98;100.00;101538.25;5028459;28;20053;-75
2023/12/12 12:03:08;;;;;;;1.05;0.40;;;;;;;6.95;100.00;101540.66;5025011;28;20049;-74